Time,TemperatureF,DewpointF,PressureIn,WindDirection,WindDirectionDegrees,WindSpeedMPH,WindSpeedGustMPH,Humidity,HourlyPrecipIn,Conditions,Clouds,dailyrainin,SolarRadiationWatts/m^2,SoftwareType,DateUTC
2013-09-17 00:03:00,50.5,40.0,30.32,North,5,3.0,8.0,68,0.00,,,0.00,0,weatherlink.com 1.10,2013-09-17 04:03:00,
2013-09-17 00:18:00,50.2,40.0,30.32,NW,321,4.0,9.0,67,0.00,,,0.00,0,weatherlink.com 1.10,2013-09-17 04:18:00,
2013-09-17 00:33:00,50.0,39.0,30.33,NNE,26,11.0,13.0,67,0.00,,,0.00,0,weatherlink.com 1.10,2013-09-17 04:33:00,
2013-09-17 00:48:00,49.6,39.0,30.34,NNW,327,7.0,14.0,66,0.00,,,0.00,0,weatherlink.com 1.10,2013-09-17 04:48:00,
2013-09-17 01:03:00,49.3,38.0,30.34,NNE,27,7.0,13.0,65,0.00,,,0.00,0,weatherlink.com 1.10,2013-09-17 05:03:00,
2013-09-17 01:19:00,48.9,38.0,30.35,NNW,339,5.0,11.0,66,0.00,,,0.00,0,weatherlink.com 1.10,2013-09-17 05:19:00,
2013-09-17 01:34:00,48.6,38.0,30.35,NE,36,3.0,14.0,66,0.00,,,0.00,0,weatherlink.com 1.10,2013-09-17 05:34:00,
2013-09-17 01:49:00,48.2,38.0,30.36,NNE,33,5.0,8.0,67,0.00,,,0.00,0,weatherlink.com 1.10,2013-09-17 05:49:00,
2013-09-17 02:04:00,47.8,37.0,30.36,NNE,24,4.0,8.0,67,0.00,,,0.00,0,weatherlink.com 1.10,2013-09-17 06:04:00,
2013-09-17 02:19:00,47.8,37.0,30.36,ENE,67,7.0,9.0,66,0.00,,,0.00,0,weatherlink.com 1.10,2013-09-17 06:19:00,
2013-09-17 02:34:00,47.6,37.0,30.36,NNW,343,6.0,8.0,66,0.00,,,0.00,0,weatherlink.com 1.10,2013-09-17 06:34:00,
2013-09-17 02:49:00,47.4,37.0,30.37,North,355,4.0,8.0,67,0.00,,,0.00,0,weatherlink.com 1.10,2013-09-17 06:49:00,
2013-09-17 03:04:00,47.2,37.0,30.37,North,5,4.0,8.0,67,0.00,,,0.00,0,weatherlink.com 1.10,2013-09-17 07:04:00,
2013-09-17 03:19:00,46.8,37.0,30.38,NE,52,0.0,6.0,69,0.00,,,0.00,0,weatherlink.com 1.10,2013-09-17 07:19:00,
2013-09-17 03:34:00,46.2,37.0,30.37,NNW,344,4.0,6.0,70,0.00,,,0.00,0,weatherlink.com 1.10,2013-09-17 07:34:00,
2013-09-17 03:49:00,45.8,37.0,30.38,NNE,26,3.0,5.0,71,0.00,,,0.00,0,weatherlink.com 1.10,2013-09-17 07:49:00,
2013-09-17 04:04:00,45.4,37.0,30.38,NNW,348,5.0,6.0,73,0.00,,,0.00,0,weatherlink.com 1.10,2013-09-17 08:04:00,
2013-09-17 04:19:00,45.1,37.0,30.38,North,351,0.0,6.0,74,0.00,,,0.00,0,weatherlink.com 1.10,2013-09-17 08:19:00,
2013-09-17 04:34:00,44.6,37.0,30.38,North,355,0.0,5.0,76,0.00,,,0.00,0,weatherlink.com 1.10,2013-09-17 08:34:00,
2013-09-17 04:49:00,44.2,37.0,30.39,NW,324,2.0,7.0,77,0.00,,,0.00,0,weatherlink.com 1.10,2013-09-17 08:49:00,
2013-09-17 05:04:00,43.9,37.0,30.39,NNE,19,2.0,6.0,78,0.00,,,0.00,0,weatherlink.com 1.10,2013-09-17 09:04:00,
2013-09-17 05:19:00,43.6,38.0,30.39,NNE,15,4.0,7.0,79,0.00,,,0.00,0,weatherlink.com 1.10,2013-09-17 09:19:00,
2013-09-17 05:34:00,43.4,38.0,30.40,NW,319,5.0,7.0,80,0.00,,,0.00,0,weatherlink.com 1.10,2013-09-17 09:34:00,
2013-09-17 05:49:00,43.3,38.0,30.40,NNW,343,0.0,6.0,80,0.00,,,0.00,0,weatherlink.com 1.10,2013-09-17 09:49:00,
2013-09-17 06:04:00,43.2,37.0,30.41,NNE,13,5.0,6.0,80,0.00,,,0.00,0,weatherlink.com 1.10,2013-09-17 10:04:00,
2013-09-17 06:19:00,43.3,37.0,30.42,North,5,3.0,6.0,79,0.00,,,0.00,0,weatherlink.com 1.10,2013-09-17 10:19:00,
2013-09-17 06:34:00,43.2,37.0,30.43,NNW,342,3.0,7.0,79,0.00,,,0.00,9,weatherlink.com 1.10,2013-09-17 10:34:00,
2013-09-17 06:49:00,43.4,37.0,30.44,NNE,13,2.0,6.0,79,0.00,,,0.00,18,weatherlink.com 1.10,2013-09-17 10:49:00,
2013-09-17 07:05:00,43.8,37.0,30.44,NNW,344,2.0,6.0,78,0.00,,,0.00,51,weatherlink.com 1.10,2013-09-17 11:05:00,
2013-09-17 07:20:00,44.3,38.0,30.45,NNE,13,2.0,7.0,77,0.00,,,0.00,100,weatherlink.com 1.10,2013-09-17 11:20:00,
2013-09-17 07:35:00,44.9,38.0,30.45,North,355,4.0,8.0,76,0.00,,,0.00,155,weatherlink.com 1.10,2013-09-17 11:35:00,
2013-09-17 07:50:00,45.8,38.0,30.46,NNE,20,4.0,8.0,75,0.00,,,0.00,216,weatherlink.com 1.10,2013-09-17 11:50:00,
2013-09-17 08:05:00,46.9,38.0,30.46,NW,323,5.0,9.0,72,0.00,,,0.00,267,weatherlink.com 1.10,2013-09-17 12:05:00,
2013-09-17 08:20:00,48.1,38.0,30.46,NNE,32,3.0,10.0,69,0.00,,,0.00,316,weatherlink.com 1.10,2013-09-17 12:20:00,
2013-09-17 08:35:00,49.1,38.0,30.47,ENE,69,3.0,10.0,67,0.00,,,0.00,360,weatherlink.com 1.10,2013-09-17 12:35:00,
2013-09-17 08:50:00,49.9,38.0,30.47,NNE,17,4.0,10.0,65,0.00,,,0.00,408,weatherlink.com 1.10,2013-09-17 12:50:00,
2013-09-17 09:05:00,50.9,38.0,30.48,ENE,63,2.0,15.0,62,0.00,,,0.00,452,weatherlink.com 1.10,2013-09-17 13:05:00,
2013-09-17 09:20:00,51.7,38.0,30.48,North,5,5.0,16.0,59,0.00,,,0.00,497,weatherlink.com 1.10,2013-09-17 13:20:00,
2013-09-17 09:35:00,52.6,38.0,30.48,ESE,123,3.0,13.0,57,0.00,,,0.00,534,weatherlink.com 1.10,2013-09-17 13:35:00,
2013-09-17 09:50:00,53.4,37.0,30.48,NE,55,9.0,12.0,55,0.00,,,0.00,573,weatherlink.com 1.10,2013-09-17 13:50:00,
2013-09-17 10:05:00,54.2,37.0,30.48,North,360,4.0,11.0,52,0.00,,,0.00,610,weatherlink.com 1.10,2013-09-17 14:05:00,
2013-09-17 10:20:00,54.7,37.0,30.48,North,9,8.0,14.0,51,0.00,,,0.00,642,weatherlink.com 1.10,2013-09-17 14:20:00,
2013-09-17 10:36:00,54.9,37.0,30.49,ENE,74,4.0,12.0,52,0.00,,,0.00,666,weatherlink.com 1.10,2013-09-17 14:36:00,
2013-09-17 10:51:00,55.3,36.0,30.49,North,355,12.0,14.0,49,0.00,,,0.00,687,weatherlink.com 1.10,2013-09-17 14:51:00,
2013-09-17 11:06:00,55.6,36.0,30.49,North,11,2.0,15.0,48,0.00,,,0.00,710,weatherlink.com 1.10,2013-09-17 15:06:00,
2013-09-17 11:21:00,56.0,36.0,30.48,NNW,330,7.0,12.0,47,0.00,,,0.00,726,weatherlink.com 1.10,2013-09-17 15:21:00,
2013-09-17 11:36:00,56.9,36.0,30.48,NW,315,3.0,10.0,45,0.00,,,0.00,749,weatherlink.com 1.10,2013-09-17 15:36:00,
2013-09-17 11:51:00,57.1,36.0,30.48,ENE,59,10.0,14.0,46,0.00,,,0.00,765,weatherlink.com 1.10,2013-09-17 15:51:00,
2013-09-17 12:06:00,56.7,36.0,30.48,North,351,4.0,13.0,46,0.00,,,0.00,772,weatherlink.com 1.10,2013-09-17 16:06:00,
2013-09-17 12:21:00,58.1,37.0,30.48,NNE,21,2.0,12.0,45,0.00,,,0.00,772,weatherlink.com 1.10,2013-09-17 16:21:00,
2013-09-17 12:36:00,57.9,35.0,30.48,ENE,76,4.0,13.0,43,0.00,,,0.00,770,weatherlink.com 1.10,2013-09-17 16:36:00,
2013-09-17 12:51:00,58.2,37.0,30.47,SE,128,2.0,14.0,45,0.00,,,0.00,765,weatherlink.com 1.10,2013-09-17 16:51:00,
2013-09-17 13:06:00,58.6,38.0,30.47,NNE,31,2.0,11.0,46,0.00,,,0.00,751,weatherlink.com 1.10,2013-09-17 17:06:00,
2013-09-17 13:21:00,58.6,38.0,30.46,East,93,1.0,11.0,47,0.00,,,0.00,735,weatherlink.com 1.10,2013-09-17 17:21:00,
2013-09-17 13:36:00,59.5,39.0,30.46,NNE,30,8.0,12.0,47,0.00,,,0.00,722,weatherlink.com 1.10,2013-09-17 17:36:00,
2013-09-17 13:51:00,59.8,39.0,30.45,ENE,59,5.0,8.0,46,0.00,,,0.00,693,weatherlink.com 1.10,2013-09-17 17:51:00,
2013-09-17 14:06:00,60.7,38.0,30.45,NNW,342,2.0,7.0,44,0.00,,,0.00,689,weatherlink.com 1.10,2013-09-17 18:06:00,
2013-09-17 14:21:00,61.2,39.0,30.44,NNW,338,3.0,8.0,44,0.00,,,0.00,675,weatherlink.com 1.10,2013-09-17 18:21:00,
2013-09-17 14:36:00,60.8,39.0,30.43,NW,315,2.0,10.0,44,0.00,,,0.00,642,weatherlink.com 1.10,2013-09-17 18:36:00,
2013-09-17 14:51:00,61.4,40.0,30.43,North,360,4.0,7.0,45,0.00,,,0.00,608,weatherlink.com 1.10,2013-09-17 18:51:00,
2013-09-17 15:06:00,61.4,39.0,30.42,SE,128,4.0,8.0,44,0.00,,,0.00,575,weatherlink.com 1.10,2013-09-17 19:06:00,
2013-09-17 15:21:00,61.8,39.0,30.42,NNE,22,3.0,8.0,44,0.00,,,0.00,547,weatherlink.com 1.10,2013-09-17 19:21:00,
2013-09-17 15:36:00,61.9,39.0,30.41,NE,51,0.0,10.0,43,0.00,,,0.00,522,weatherlink.com 1.10,2013-09-17 19:36:00,
2013-09-17 15:51:00,63.2,40.0,30.41,SE,124,5.0,10.0,42,0.00,,,0.00,489,weatherlink.com 1.10,2013-09-17 19:51:00,
2013-09-17 16:06:00,63.3,39.0,30.41,North,349,7.0,9.0,41,0.00,,,0.00,454,weatherlink.com 1.10,2013-09-17 20:06:00,
2013-09-17 16:21:00,63.3,40.0,30.41,East,80,5.0,7.0,42,0.00,,,0.00,415,weatherlink.com 1.10,2013-09-17 20:21:00,
2013-09-17 16:36:00,63.5,40.0,30.41,NNE,28,4.0,7.0,42,0.00,,,0.00,376,weatherlink.com 1.10,2013-09-17 20:36:00,
2013-09-17 16:51:00,63.5,39.0,30.40,North,5,4.0,9.0,41,0.00,,,0.00,330,weatherlink.com 1.10,2013-09-17 20:51:00,
2013-09-17 17:06:00,63.4,40.0,30.40,North,349,4.0,9.0,43,0.00,,,0.00,290,weatherlink.com 1.10,2013-09-17 21:06:00,
2013-09-17 17:21:00,63.7,40.0,30.39,NNW,331,2.0,6.0,42,0.00,,,0.00,237,weatherlink.com 1.10,2013-09-17 21:21:00,
2013-09-17 17:36:00,63.3,40.0,30.39,North,360,4.0,9.0,42,0.00,,,0.00,183,weatherlink.com 1.10,2013-09-17 21:36:00,
2013-09-17 17:51:00,63.4,41.0,30.40,NW,313,3.0,7.0,44,0.00,,,0.00,123,weatherlink.com 1.10,2013-09-17 21:51:00,
2013-09-17 18:06:00,63.2,40.0,30.39,NE,40,2.0,7.0,42,0.00,,,0.00,70,weatherlink.com 1.10,2013-09-17 22:06:00,
2013-09-17 18:21:00,63.2,41.0,30.39,NW,315,0.0,5.0,44,0.00,,,0.00,33,weatherlink.com 1.10,2013-09-17 22:21:00,
2013-09-17 18:36:00,62.4,41.0,30.39,NW,319,3.0,5.0,45,0.00,,,0.00,12,weatherlink.com 1.10,2013-09-17 22:36:00,
2013-09-17 18:51:00,61.4,41.0,30.39,NNW,339,0.0,3.0,48,0.00,,,0.00,5,weatherlink.com 1.10,2013-09-17 22:51:00,
2013-09-17 19:06:00,60.4,42.0,30.39,WNW,289,1.0,5.0,51,0.00,,,0.00,0,weatherlink.com 1.10,2013-09-17 23:06:00,
2013-09-17 19:21:00,59.6,43.0,30.39,WNW,286,1.0,3.0,54,0.00,,,0.00,0,weatherlink.com 1.10,2013-09-17 23:21:00,
2013-09-17 19:36:00,58.9,43.0,30.39,NW,304,2.0,3.0,57,0.00,,,0.00,0,weatherlink.com 1.10,2013-09-17 23:36:00,
2013-09-17 19:51:00,58.2,44.0,30.39,NW,305,0.0,2.0,60,0.00,,,0.00,0,weatherlink.com 1.10,2013-09-17 23:51:00,
2013-09-17 20:06:00,57.2,45.0,30.39,NW,304,1.0,2.0,63,0.00,,,0.00,0,weatherlink.com 1.10,2013-09-18 00:06:00,
2013-09-17 20:21:00,56.5,45.0,30.40,NW,305,0.0,2.0,66,0.00,,,0.00,0,weatherlink.com 1.10,2013-09-18 00:21:00,
2013-09-17 20:36:00,55.9,45.0,30.40,WNW,302,1.0,1.0,67,0.00,,,0.00,0,weatherlink.com 1.10,2013-09-18 00:36:00,
2013-09-17 20:51:00,55.5,44.0,30.40,WNW,298,2.0,3.0,66,0.00,,,0.00,0,weatherlink.com 1.10,2013-09-18 00:51:00,
2013-09-17 21:06:00,55.1,45.0,30.39,WNW,297,0.0,0.0,68,0.00,,,0.00,0,weatherlink.com 1.10,2013-09-18 01:06:00,
2013-09-17 21:21:00,54.5,45.0,30.39,West,275,0.0,3.0,70,0.00,,,0.00,0,weatherlink.com 1.10,2013-09-18 01:21:00,
2013-09-17 21:36:00,54.2,45.0,30.40,West,275,1.0,2.0,71,0.00,,,0.00,0,weatherlink.com 1.10,2013-09-18 01:36:00,
2013-09-17 21:51:00,54.1,45.0,30.40,West,275,1.0,3.0,71,0.00,,,0.00,0,weatherlink.com 1.10,2013-09-18 01:51:00,
2013-09-17 22:06:00,53.6,45.0,30.39,West,279,0.0,3.0,72,0.00,,,0.00,0,weatherlink.com 1.10,2013-09-18 02:06:00,
2013-09-17 22:21:00,53.1,44.0,30.39,West,279,0.0,2.0,72,0.00,,,0.00,0,weatherlink.com 1.10,2013-09-18 02:21:00,
2013-09-17 22:36:00,52.9,44.0,30.40,West,278,2.0,3.0,73,0.00,,,0.00,0,weatherlink.com 1.10,2013-09-18 02:36:00,
2013-09-17 22:51:00,52.7,44.0,30.40,West,278,0.0,0.0,73,0.00,,,0.00,0,weatherlink.com 1.10,2013-09-18 02:51:00,
2013-09-17 23:06:00,52.4,45.0,30.40,West,278,0.0,1.0,75,0.00,,,0.00,0,weatherlink.com 1.10,2013-09-18 03:06:00,
2013-09-17 23:21:00,52.6,44.0,30.40,West,276,0.0,3.0,73,0.00,,,0.00,0,weatherlink.com 1.10,2013-09-18 03:21:00,
2013-09-17 23:36:00,52.3,44.0,30.39,West,277,0.0,1.0,74,0.00,,,0.00,0,weatherlink.com 1.10,2013-09-18 03:36:00,
2013-09-17 23:51:00,51.7,44.0,30.39,West,276,0.0,0.0,76,0.00,,,0.00,0,weatherlink.com 1.10,2013-09-18 03:51:00,